createdAt,value
2022-09-26T00:02:29.511Z,1532
2022-09-26T00:07:48.341Z,1533
2022-09-26T00:13:06.240Z,1530
2022-09-26T00:18:25.002Z,1531
2022-09-26T00:23:43.236Z,1548
2022-09-26T00:29:02.068Z,1535
2022-09-26T00:34:20.287Z,1531
2022-09-26T00:39:38.805Z,1526
2022-09-26T00:44:57.030Z,1527
2022-09-26T00:50:15.229Z,1533
2022-09-26T00:55:33.734Z,1525
2022-09-26T01:00:52.258Z,1523
2022-09-26T01:06:10.402Z,1520
2022-09-26T01:11:29.208Z,1521
2022-09-26T01:16:48.137Z,1525
2022-09-26T01:22:06.628Z,1527
2022-09-26T01:27:25.416Z,1523
2022-09-26T01:32:43.605Z,1527
2022-09-26T01:38:01.822Z,1517
2022-09-26T01:43:20.328Z,1513
2022-09-26T01:48:38.505Z,1516
2022-09-26T01:53:57.013Z,1513
2022-09-26T01:59:15.596Z,1517
2022-09-26T02:04:34.226Z,1513
2022-09-26T02:09:52.727Z,1513
2022-09-26T02:15:11.521Z,1504
2022-09-26T02:20:29.433Z,1504
2022-09-26T02:25:47.646Z,1501
2022-09-26T02:31:05.986Z,1503
2022-09-26T02:36:24.174Z,1501
2022-09-26T02:41:42.369Z,1499
2022-09-26T02:47:00.879Z,1504
2022-09-26T02:52:19.371Z,1499
2022-09-26T02:57:37.581Z,1499
2022-09-26T03:02:55.801Z,1502
2022-09-26T03:08:13.984Z,1505
2022-09-26T03:13:32.793Z,1505
2022-09-26T03:18:51.051Z,1502
2022-09-26T03:24:09.221Z,1497
2022-09-26T03:29:27.433Z,1500
2022-09-26T03:34:46.232Z,1533
2022-09-26T03:40:04.403Z,1529
2022-09-26T03:45:23.235Z,1524
2022-09-26T03:50:41.684Z,1525
2022-09-26T03:55:59.856Z,1502
2022-09-26T04:01:18.471Z,1479
2022-09-26T04:06:36.826Z,1474
2022-09-26T04:11:55.481Z,1468
2022-09-26T04:17:14.230Z,1476
2022-09-26T04:22:32.482Z,1468
2022-09-26T04:27:51.234Z,1459
2022-09-26T04:33:09.432Z,1487
2022-09-26T04:38:27.937Z,1002
2022-09-26T04:43:46.551Z,927
2022-09-26T04:49:05.311Z,824
2022-09-26T04:54:23.739Z,762
2022-09-26T04:59:42.218Z,711
2022-09-26T05:05:00.664Z,682
2022-09-26T05:10:19.213Z,688
2022-09-26T05:15:37.739Z,774
2022-09-26T05:20:55.960Z,835
2022-09-26T05:26:14.179Z,876
2022-09-26T05:31:32.775Z,895
2022-09-26T05:36:51.428Z,901
2022-09-26T05:41:54.314Z,908
2022-09-26T05:47:13.084Z,909
2022-09-26T05:52:31.808Z,928
2022-09-26T05:57:50.057Z,954
2022-09-26T06:03:08.326Z,970
2022-09-26T06:08:27.106Z,998
2022-09-26T06:13:45.721Z,1003
2022-09-26T06:19:04.105Z,1024
2022-09-26T06:24:22.624Z,1068
2022-09-26T06:29:40.853Z,1079
2022-09-26T06:34:59.300Z,1088
2022-09-26T06:40:17.866Z,1092
2022-09-26T06:45:36.192Z,1093
2022-09-26T06:50:54.404Z,1092
2022-09-26T06:56:12.863Z,779
2022-09-26T07:01:34.657Z,597
2022-09-26T07:06:53.558Z,519
2022-09-26T07:12:15.666Z,471
2022-09-26T07:17:34.758Z,444
2022-09-26T07:22:53.531Z,429
2022-09-26T07:28:11.580Z,426
2022-09-26T07:33:29.790Z,412
2022-09-26T07:38:47.992Z,406
2022-09-26T07:50:45.701Z,434
2022-09-26T07:56:04.198Z,471
2022-09-26T08:01:23.053Z,484
2022-09-26T08:06:41.449Z,477
2022-09-26T08:12:00.251Z,472
2022-09-26T08:17:18.137Z,490
2022-09-26T08:22:36.908Z,510
2022-09-26T08:27:55.686Z,518
2022-09-26T08:33:14.439Z,524
2022-09-26T08:38:33.197Z,529
2022-09-26T08:43:52.009Z,536
2022-09-26T08:49:09.985Z,538
2022-09-26T08:54:28.183Z,545
2022-09-26T08:59:46.689Z,549
2022-09-26T09:05:05.129Z,554
2022-09-26T09:10:23.935Z,556
2022-09-26T09:15:42.429Z,563
2022-09-26T09:21:01.301Z,566
2022-09-26T09:33:09.178Z,569
2022-09-26T09:38:27.383Z,572
2022-09-26T09:43:45.591Z,574
2022-09-26T09:49:04.081Z,572
2022-09-26T09:54:22.563Z,575
2022-09-26T09:59:41.299Z,573
2022-09-26T10:04:59.899Z,580
2022-09-26T10:10:18.367Z,582
2022-09-26T10:15:36.914Z,582
2022-09-26T10:20:55.799Z,585
2022-09-26T10:26:13.799Z,588
2022-09-26T10:31:32.632Z,594
2022-09-26T10:36:50.754Z,595
2022-09-26T10:42:09.489Z,590
2022-09-26T10:47:28.255Z,592
2022-09-26T10:52:46.787Z,590
2022-09-26T10:58:07.851Z,586
2022-09-26T11:03:33.031Z,595
2022-09-26T11:08:51.632Z,595
2022-09-26T11:14:10.241Z,590
2022-09-26T11:19:28.491Z,586
2022-09-26T11:24:46.995Z,593
2022-09-26T11:30:05.727Z,591
2022-09-26T11:35:24.208Z,592
2022-09-26T11:40:42.481Z,596
2022-09-26T11:46:00.948Z,597
2022-09-26T11:51:19.251Z,596
2022-09-26T11:56:37.825Z,596
2022-09-26T12:01:56.296Z,593
2022-09-26T12:07:14.761Z,592
2022-09-26T12:12:35.931Z,591
2022-09-26T12:17:58.766Z,596
2022-09-26T12:23:17.530Z,594
2022-09-26T12:28:36.070Z,609
2022-09-26T12:33:54.271Z,631
2022-09-26T12:39:12.769Z,632
2022-09-26T12:44:31.872Z,621
2022-09-26T12:49:49.784Z,629
2022-09-26T12:55:08.244Z,626
2022-09-26T13:00:27.051Z,622
2022-09-26T13:05:45.222Z,620
2022-09-26T13:11:03.708Z,624
2022-09-26T13:16:21.982Z,634
2022-09-26T13:21:40.407Z,653
2022-09-26T13:26:58.890Z,666
2022-09-26T13:32:17.667Z,676
2022-09-26T13:37:35.841Z,672
2022-09-26T13:42:56.517Z,701
2022-09-26T13:48:20.965Z,694
2022-09-26T13:53:38.886Z,704
2022-09-26T13:58:57.080Z,703
2022-09-26T14:04:15.320Z,691
2022-09-26T14:09:33.945Z,690
2022-09-26T14:14:52.729Z,692
2022-09-26T14:20:11.497Z,693
2022-09-26T14:25:29.688Z,694
2022-09-26T14:30:48.522Z,711
2022-09-26T14:36:07.123Z,722
2022-09-26T14:41:25.572Z,728
2022-09-26T14:46:44.350Z,733
2022-09-26T14:52:04.475Z,728
2022-09-26T14:57:29.272Z,716
2022-09-26T15:02:47.816Z,706
2022-09-26T15:08:05.817Z,696
2022-09-26T15:13:24.342Z,692
2022-09-26T15:18:43.071Z,699
2022-09-26T15:24:01.603Z,712
2022-09-26T15:29:19.764Z,715
2022-09-26T15:34:37.964Z,738
2022-09-26T15:39:56.218Z,706
2022-09-26T15:45:14.383Z,689
2022-09-26T15:50:32.578Z,709
2022-09-26T15:55:50.503Z,754
2022-09-26T16:01:08.788Z,786
2022-09-26T16:06:27.133Z,788
2022-09-26T16:11:45.630Z,793
2022-09-26T16:17:03.558Z,805
2022-09-26T16:22:22.332Z,845
2022-09-26T16:27:40.552Z,844
2022-09-26T16:32:59.010Z,865
2022-09-26T16:38:17.762Z,884
2022-09-26T16:43:36.285Z,890
2022-09-26T16:48:55.033Z,902
2022-09-26T16:54:13.264Z,910
2022-09-26T16:59:31.781Z,917
2022-09-26T17:04:49.963Z,934
2022-09-26T17:10:08.436Z,981
2022-09-26T17:15:27.298Z,1006
2022-09-26T17:20:45.866Z,1006
2022-09-26T17:26:04.321Z,977
2022-09-26T17:31:07.851Z,961
2022-09-26T17:36:26.682Z,632
2022-09-26T17:41:45.405Z,712
2022-09-26T17:47:03.588Z,785
2022-09-26T17:52:06.441Z,794
2022-09-26T17:57:30.437Z,789
2022-09-26T18:02:48.919Z,770
2022-09-26T18:08:07.530Z,809
2022-09-26T18:13:26.041Z,831
2022-09-26T18:18:44.650Z,859
2022-09-26T18:24:03.472Z,885
2022-09-26T18:29:22.297Z,900
2022-09-26T18:34:41.292Z,927
2022-09-26T18:40:03.763Z,955
2022-09-26T18:45:22.804Z,976
2022-09-26T18:50:41.330Z,995
2022-09-26T18:55:59.896Z,1017
2022-09-26T19:01:18.873Z,1031
2022-09-26T19:06:37.323Z,1056
2022-09-26T19:11:55.927Z,1093
2022-09-26T19:17:14.814Z,1134
2022-09-26T19:22:33.383Z,1167
2022-09-26T19:27:52.092Z,1198
2022-09-26T19:33:10.862Z,1220
2022-09-26T19:38:29.402Z,1241
2022-09-26T19:43:47.879Z,1278
2022-09-26T19:49:06.623Z,1304
2022-09-26T19:54:25.449Z,1327
2022-09-26T19:59:43.910Z,1332
2022-09-26T20:05:02.150Z,1344
2022-09-26T20:10:20.650Z,1361
2022-09-26T20:15:39.079Z,1378
2022-09-26T20:20:57.027Z,1401
2022-09-26T20:26:15.542Z,1403
2022-09-26T20:31:34.282Z,1410
2022-09-26T20:36:52.518Z,1424
2022-09-26T20:42:11.037Z,1447
2022-09-26T20:47:29.510Z,1466
2022-09-26T20:52:47.706Z,1480
2022-09-26T20:58:06.232Z,1501
2022-09-26T21:03:24.686Z,1521
2022-09-26T21:08:43.172Z,1527
2022-09-26T21:25:03.028Z,1558
2022-09-26T21:30:20.935Z,1567
2022-09-26T21:35:39.127Z,1572
2022-09-26T21:40:57.459Z,1574
2022-09-26T21:46:15.763Z,1575
2022-09-26T21:51:33.845Z,1576
2022-09-26T21:56:52.640Z,1590
2022-09-26T22:02:10.877Z,1597
2022-09-26T22:07:29.213Z,1590
2022-09-26T22:12:47.708Z,1601
2022-09-26T22:18:05.621Z,1604
2022-09-26T22:23:24.387Z,1608
2022-09-26T22:28:43.181Z,1601
2022-09-26T22:34:01.362Z,1687
2022-09-26T22:39:20.122Z,1644
2022-09-26T22:44:38.642Z,1641
2022-09-26T22:49:56.821Z,1634
2022-09-26T22:55:15.474Z,1643
2022-09-26T23:00:33.972Z,1640
2022-09-26T23:05:52.143Z,1645
2022-09-26T23:11:10.930Z,1658
2022-09-26T23:16:29.506Z,1657
2022-09-26T23:21:47.666Z,1660
2022-09-26T23:27:06.445Z,1662
2022-09-26T23:32:25.231Z,1671
2022-09-26T23:37:44.018Z,1665
2022-09-26T23:43:02.485Z,1656
2022-09-26T23:48:21.029Z,1659
2022-09-26T23:53:23.854Z,1672
2022-09-26T23:58:42.653Z,1670
